Time;durP1;ratioP1;P1;durP2;ratioP2;P2;SDS_P1;SDS_P2;PMS_P1;PMS_P2;Temp;Humidity;BMP_temperature;BMP_pressure;BME280_temperature;BME280_humidity;BME280_pressure;Samples;Min_cycle;Max_cycle;Signal;HPM_P1;HPM_P2
2021/05/24 00:00:14;;;;;;;2.17;1.70;;;;;;;11.26;77.67;98979.56;4425744;32;20073;-79
2021/05/24 00:09:22;;;;;;;3.70;2.08;;;;;;;11.31;76.81;98967.59;4395795;32;20072;-79
2021/05/24 00:11:50;;;;;;;3.50;2.55;;;;;;;11.24;77.22;98959.56;4403272;32;20483;-79
2021/05/24 00:14:18;;;;;;;3.58;2.50;;;;;;;11.23;77.54;98958.00;4402564;32;20082;-79
2021/05/24 00:16:44;;;;;;;6.75;2.60;;;;;;;11.15;76.41;98951.22;4405762;32;20022;-79
2021/05/24 00:19:10;;;;;;;4.15;2.20;;;;;;;11.11;75.41;98959.84;4403714;32;20140;-79
2021/05/24 00:21:35;;;;;;;8.63;3.55;;;;;;;11.08;75.46;98962.88;4405115;32;20847;-78
2021/05/24 00:24:02;;;;;;;5.55;2.58;;;;;;;11.10;75.28;98963.13;4407054;32;20107;-79
2021/05/24 00:26:28;;;;;;;4.45;2.45;;;;;;;10.95;75.84;98957.50;4394683;32;20418;-79
2021/05/24 00:28:54;;;;;;;4.47;2.60;;;;;;;10.89;75.52;98965.06;4389020;32;20093;-79
2021/05/24 00:31:19;;;;;;;7.53;3.05;;;;;;;10.72;75.88;98961.16;4387382;32;20086;-79
2021/05/24 00:33:45;;;;;;;6.28;2.30;;;;;;;10.73;76.16;98971.16;4391678;32;20374;-78
2021/05/24 00:36:11;;;;;;;6.78;2.70;;;;;;;10.87;75.75;98967.59;4397184;32;20398;-79
2021/05/24 00:38:36;;;;;;;5.05;2.35;;;;;;;10.76;76.32;98955.34;4392402;32;20124;-79
2021/05/24 00:41:02;;;;;;;3.62;2.72;;;;;;;10.75;76.84;98963.03;4397800;32;20026;-79
2021/05/24 00:43:28;;;;;;;4.43;2.60;;;;;;;10.76;76.09;98952.53;4399390;32;20112;-78
2021/05/24 00:45:54;;;;;;;3.92;2.20;;;;;;;10.77;76.15;98960.47;4398421;32;20076;-78
2021/05/24 00:48:20;;;;;;;6.65;2.28;;;;;;;10.80;75.63;98953.88;4398985;32;20101;-78
2021/05/24 00:50:45;;;;;;;6.32;2.60;;;;;;;10.81;76.04;98955.47;4396016;32;20108;-78
2021/05/24 00:53:11;;;;;;;3.95;2.30;;;;;;;10.84;75.98;98951.69;4396872;32;20192;-78
2021/05/24 00:55:37;;;;;;;5.80;2.00;;;;;;;10.88;75.68;98954.28;4399561;32;20123;-78
2021/05/24 00:58:04;;;;;;;5.65;2.20;;;;;;;10.75;76.04;98953.78;4388441;32;20074;-78
2021/05/24 01:00:36;;;;;;;5.07;2.35;;;;;;;10.63;76.65;98955.63;4401682;32;20104;-78
2021/05/24 01:03:04;;;;;;;4.90;2.58;;;;;;;10.78;76.55;98964.87;4402981;32;20046;-77
2021/05/24 01:05:30;;;;;;;8.02;2.80;;;;;;;10.85;76.10;98960.88;4407809;32;20037;-77
2021/05/24 01:07:56;;;;;;;4.68;2.58;;;;;;;10.89;76.06;98961.50;4406894;32;20115;-78
2021/05/24 01:10:22;;;;;;;4.20;2.10;;;;;;;10.88;76.01;98951.47;4396041;32;20109;-78
2021/05/24 01:12:48;;;;;;;8.82;2.87;;;;;;;10.82;76.21;98950.59;4399983;32;20118;-78
2021/05/24 01:15:14;;;;;;;4.07;2.80;;;;;;;10.75;76.26;98954.59;4400752;32;20080;-78
2021/05/24 01:17:43;;;;;;;6.75;3.37;;;;;;;10.62;76.76;98954.09;4409387;32;20110;-77
2021/05/24 01:20:10;;;;;;;4.87;2.58;;;;;;;10.48;77.57;98956.84;4401542;32;20074;-77
2021/05/24 01:22:38;;;;;;;4.53;2.40;;;;;;;10.45;77.43;98960.59;4405058;32;20057;-77
2021/05/24 01:25:06;;;;;;;5.00;2.50;;;;;;;10.43;77.29;98958.28;4401129;32;20046;-79
2021/05/24 01:27:32;;;;;;;6.35;2.40;;;;;;;10.47;77.64;98955.28;4382415;32;20140;-77
2021/05/24 01:29:59;;;;;;;4.20;2.22;;;;;;;10.45;77.77;98955.78;4398295;32;20475;-78
2021/05/24 01:32:26;;;;;;;7.62;2.85;;;;;;;10.57;78.04;98960.38;4397804;32;20065;-77
2021/05/24 01:34:54;;;;;;;6.43;2.80;;;;;;;10.62;78.03;98956.91;4399218;32;20042;-78
2021/05/24 01:37:20;;;;;;;4.97;2.45;;;;;;;10.56;78.11;98958.81;4400349;32;20154;-78
2021/05/24 01:39:45;;;;;;;6.68;2.92;;;;;;;10.61;77.70;98949.69;4397990;32;20479;-78
2021/05/24 01:42:11;;;;;;;6.53;2.87;;;;;;;10.56;78.07;98955.22;4399552;32;20051;-78
2021/05/24 01:44:39;;;;;;;7.90;3.08;;;;;;;10.54;77.73;98955.69;4398653;32;20127;-78
2021/05/24 01:47:07;;;;;;;5.28;2.58;;;;;;;10.55;77.58;98956.47;4398496;32;20077;-78
2021/05/24 01:49:34;;;;;;;5.57;2.95;;;;;;;10.47;78.00;98955.28;4395776;32;20058;-77
2021/05/24 01:52:04;;;;;;;6.45;2.42;;;;;;;10.49;77.70;98953.53;4398640;32;20049;-78
2021/05/24 01:54:30;;;;;;;5.87;3.15;;;;;;;10.50;77.60;98955.13;4398766;32;20447;-78
2021/05/24 01:56:56;;;;;;;5.65;3.10;;;;;;;10.48;77.43;98959.66;4397239;32;20084;-78
2021/05/24 01:59:22;;;;;;;7.70;2.60;;;;;;;10.48;77.01;98956.84;4396229;32;20038;-77
2021/05/24 02:01:48;;;;;;;8.10;3.10;;;;;;;10.51;77.01;98953.06;4398592;32;20054;-78
2021/05/24 02:04:15;;;;;;;6.70;2.83;;;;;;;10.46;77.07;98953.75;4404606;32;20049;-78
2021/05/24 02:06:42;;;;;;;5.20;2.70;;;;;;;10.62;76.45;98951.25;4395784;32;20079;-78
2021/05/24 02:09:08;;;;;;;7.82;3.25;;;;;;;10.65;76.38;98939.03;4396669;32;20081;-78
2021/05/24 02:11:34;;;;;;;9.15;3.33;;;;;;;10.54;76.26;98947.25;4398961;32;20038;-78
2021/05/24 02:14:00;;;;;;;4.78;2.45;;;;;;;10.51;76.67;98939.00;4400863;32;20126;-78
2021/05/24 02:16:37;;;;;;;8.65;2.95;;;;;;;10.52;76.67;98946.94;4395177;32;20074;-77
2021/05/24 02:19:03;;;;;;;5.43;2.70;;;;;;;10.46;76.92;98943.25;4399418;32;20066;-79
2021/05/24 02:21:29;;;;;;;6.80;3.00;;;;;;;10.45;77.00;98946.53;4400845;32;20038;-78
2021/05/24 02:23:54;;;;;;;7.32;2.95;;;;;;;10.46;76.82;98931.25;4401097;32;20034;-78
2021/05/24 02:26:20;;;;;;;7.70;2.53;;;;;;;10.39;76.78;98943.63;4400139;32;20074;-77
2021/05/24 02:28:45;;;;;;;8.40;3.12;;;;;;;10.34;76.65;98946.34;4399561;32;20042;-78
2021/05/24 02:31:12;;;;;;;9.20;2.83;;;;;;;10.35;76.41;98943.03;4396564;32;20073;-77
2021/05/24 02:33:38;;;;;;;11.15;2.97;;;;;;;10.29;76.92;98950.59;4384466;32;20089;-78
2021/05/24 02:36:04;;;;;;;8.10;2.67;;;;;;;10.16;77.52;98947.25;4400546;32;20207;-78
2021/05/24 02:38:30;;;;;;;6.10;3.20;;;;;;;10.18;77.66;98949.59;4400921;32;20528;-77
2021/05/24 02:40:55;;;;;;;7.82;2.47;;;;;;;10.10;77.56;98952.72;4400583;32;20034;-77
2021/05/24 02:43:21;;;;;;;7.70;2.47;;;;;;;10.04;77.66;98949.00;4400835;32;20086;-77
2021/05/24 02:45:47;;;;;;;9.93;3.12;;;;;;;9.89;78.05;98953.78;4400002;32;20043;-77
2021/05/24 02:48:14;;;;;;;9.32;2.87;;;;;;;9.81;78.78;98948.97;4401263;32;20049;-77
2021/05/24 02:50:41;;;;;;;8.68;2.97;;;;;;;9.77;79.15;98954.78;4398919;32;20069;-77
2021/05/24 02:53:06;;;;;;;6.03;2.65;;;;;;;9.71;79.21;98951.06;4399169;32;20026;-77
2021/05/24 02:55:32;;;;;;;5.00;3.17;;;;;;;9.70;79.46;98948.75;4401101;32;20046;-76
2021/05/24 02:57:58;;;;;;;9.10;3.03;;;;;;;9.62;79.86;98953.91;4400815;32;20038;-77
2021/05/24 03:00:26;;;;;;;7.37;2.47;;;;;;;9.64;79.59;98959.06;4398083;32;20081;-77
2021/05/24 03:02:53;;;;;;;6.70;2.50;;;;;;;9.71;79.53;98953.88;4398806;32;20088;-76
2021/05/24 03:05:21;;;;;;;11.20;3.08;;;;;;;9.69;79.56;98959.19;4401068;32;20108;-77
2021/05/24 03:07:48;;;;;;;7.85;2.70;;;;;;;9.69;79.52;98955.59;4409374;32;20082;-76
2021/05/24 03:10:16;;;;;;;6.30;2.67;;;;;;;9.69;79.52;98956.37;4403382;32;20084;-77
2021/05/24 03:12:42;;;;;;;7.37;3.40;;;;;;;9.65;79.91;98957.81;4400478;32;20090;-77
2021/05/24 03:15:09;;;;;;;10.90;3.10;;;;;;;9.72;79.45;98968.69;4401567;32;20027;-76
2021/05/24 03:17:36;;;;;;;8.48;3.12;;;;;;;9.72;79.09;98966.66;4399169;32;20109;-76
2021/05/24 03:20:04;;;;;;;9.98;3.15;;;;;;;9.60;79.15;98961.25;4399118;32;20449;-76
2021/05/24 03:22:30;;;;;;;11.32;3.55;;;;;;;9.54;79.48;98968.75;4401504;32;20064;-76
2021/05/24 03:24:56;;;;;;;14.25;4.05;;;;;;;9.47;79.83;98961.47;4399981;32;20038;-77
2021/05/24 03:27:22;;;;;;;9.65;2.87;;;;;;;9.49;79.75;98970.22;4400220;32;20073;-77
2021/05/24 03:29:48;;;;;;;8.88;3.15;;;;;;;9.39;80.21;98965.84;4398325;32;20043;-76
2021/05/24 03:32:15;;;;;;;9.43;3.65;;;;;;;9.40;80.46;98973.06;4399150;32;20462;-77
2021/05/24 03:34:40;;;;;;;7.62;3.08;;;;;;;9.55;80.11;98982.31;4405192;32;20138;-77
2021/05/24 03:37:06;;;;;;;8.95;3.70;;;;;;;9.52;80.27;98979.69;4411029;32;20484;-77
2021/05/24 03:39:32;;;;;;;8.32;3.30;;;;;;;9.66;79.72;98990.25;4392687;32;20125;-77
2021/05/24 03:41:58;;;;;;;10.05;3.60;;;;;;;9.72;79.60;98989.13;4393699;32;20042;-76
2021/05/24 03:44:23;;;;;;;6.15;3.15;;;;;;;9.77;79.27;98999.72;4391844;32;20065;-77
2021/05/24 03:46:50;;;;;;;7.95;3.05;;;;;;;9.82;79.12;98984.25;4400173;32;20146;-76
2021/05/24 03:49:16;;;;;;;9.13;3.08;;;;;;;9.97;78.58;98997.13;4399485;32;20051;-77
2021/05/24 03:51:41;;;;;;;10.18;3.70;;;;;;;10.02;77.93;98992.88;4399673;32;20407;-77
2021/05/24 03:54:07;;;;;;;9.27;2.72;;;;;;;10.01;77.85;98991.34;4396990;32;20089;-77
2021/05/24 03:56:33;;;;;;;13.62;3.12;;;;;;;9.97;77.73;98997.13;4392499;32;20046;-77
2021/05/24 03:58:59;;;;;;;8.43;2.85;;;;;;;9.87;78.04;98992.03;4400005;32;20074;-77
2021/05/24 04:01:25;;;;;;;8.93;3.12;;;;;;;9.92;77.71;98992.12;4399481;32;20068;-77
2021/05/24 04:03:54;;;;;;;11.60;3.35;;;;;;;9.91;77.97;98992.63;4398960;32;20090;-77
2021/05/24 04:06:20;;;;;;;11.15;2.75;;;;;;;9.89;78.08;99000.75;4398100;32;20116;-77
2021/05/24 04:08:47;;;;;;;7.00;3.03;;;;;;;9.88;78.03;99002.78;4385713;32;20055;-77
2021/05/24 04:11:14;;;;;;;12.15;3.25;;;;;;;9.95;78.12;99004.47;4383412;32;20211;-77
2021/05/24 04:13:44;;;;;;;9.52;2.97;;;;;;;9.99;77.48;99007.88;4397029;32;21332;-77
2021/05/24 04:16:10;;;;;;;10.95;3.40;;;;;;;10.12;77.37;99005.66;4399536;32;20082;-77
2021/05/24 04:18:36;;;;;;;10.07;3.15;;;;;;;10.21;76.65;99011.22;4400252;32;20060;-77
2021/05/24 04:21:03;;;;;;;7.03;2.83;;;;;;;10.25;76.51;99005.44;4399053;32;20093;-76
2021/05/24 04:23:29;;;;;;;14.15;2.80;;;;;;;10.21;76.01;99018.91;4400396;32;20096;-77
2021/05/24 04:25:55;;;;;;;9.93;2.85;;;;;;;10.15;76.12;99006.75;4398768;32;20108;-76
2021/05/24 04:28:20;;;;;;;8.40;3.37;;;;;;;9.90;76.18;99019.16;4398763;32;20078;-76
2021/05/24 04:30:46;;;;;;;10.05;3.12;;;;;;;9.84;76.23;99021.06;4398604;32;20068;-77
2021/05/24 04:33:12;;;;;;;8.80;3.12;;;;;;;9.85;76.78;99023.41;4399392;32;20089;-76
2021/05/24 04:35:38;;;;;;;10.30;3.33;;;;;;;9.80;77.32;99035.31;4399942;32;20065;-76
2021/05/24 04:38:05;;;;;;;10.35;2.70;;;;;;;9.90;77.21;99022.75;4383823;32;20050;-77
2021/05/24 04:40:32;;;;;;;11.68;4.78;;;;;;;9.92;77.17;99037.09;4396955;32;20115;-76
2021/05/24 04:42:58;;;;;;;10.93;3.75;;;;;;;9.97;77.33;99033.66;4398750;32;20058;-76
2021/05/24 04:45:25;;;;;;;11.77;3.33;;;;;;;9.99;77.05;99039.59;4397298;32;20168;-77
2021/05/24 04:47:50;;;;;;;6.87;3.10;;;;;;;10.15;76.51;99034.84;4400218;32;20073;-77
2021/05/24 04:50:17;;;;;;;10.60;3.20;;;;;;;10.14;76.35;99028.44;4397658;32;20045;-77
2021/05/24 04:52:43;;;;;;;11.50;3.22;;;;;;;10.28;76.37;99029.78;4396594;32;20058;-77
2021/05/24 04:55:10;;;;;;;15.15;3.67;;;;;;;10.48;75.67;99027.91;4397599;32;20042;-77
2021/05/24 04:57:36;;;;;;;7.90;3.12;;;;;;;10.58;75.09;99028.66;4400176;32;20140;-77
2021/05/24 05:00:05;;;;;;;10.18;2.60;;;;;;;10.58;74.69;99029.41;4397743;32;20093;-77
2021/05/24 05:02:30;;;;;;;8.57;3.28;;;;;;;10.48;74.24;99027.91;4398808;32;20030;-77
2021/05/24 05:04:56;;;;;;;14.45;3.85;;;;;;;10.58;74.12;99028.66;4400346;32;20107;-77
2021/05/24 05:07:22;;;;;;;14.82;2.80;;;;;;;10.55;74.24;99032.41;4400214;32;20038;-77
2021/05/24 05:09:48;;;;;;;6.07;2.53;;;;;;;10.58;74.05;99039.91;4397216;32;20462;-77
2021/05/24 05:12:14;;;;;;;10.73;3.47;;;;;;;10.59;73.80;99041.44;4395282;32;20443;-77
2021/05/24 05:14:40;;;;;;;8.73;3.42;;;;;;;10.40;74.17;99028.78;4398982;32;20081;-77
2021/05/24 05:17:06;;;;;;;13.23;3.15;;;;;;;10.25;74.37;99033.53;4396467;32;20050;-77
2021/05/24 05:19:32;;;;;;;10.27;3.08;;;;;;;10.26;74.75;99049.94;4397889;32;20042;-77
2021/05/24 05:21:58;;;;;;;9.90;2.90;;;;;;;10.34;74.76;99051.13;4398094;32;20462;-77
2021/05/24 05:24:23;;;;;;;6.37;2.40;;;;;;;10.41;74.51;99058.44;4397498;32;20034;-77
2021/05/24 05:26:49;;;;;;;10.55;3.50;;;;;;;10.50;73.94;99058.38;4398380;32;20100;-77
2021/05/24 05:29:14;;;;;;;9.98;3.35;;;;;;;10.46;74.21;99069.78;4398876;32;20093;-77
2021/05/24 05:31:40;;;;;;;10.13;3.58;;;;;;;10.42;74.54;99068.41;4395551;32;20050;-77
2021/05/24 05:34:06;;;;;;;8.35;3.75;;;;;;;10.57;74.38;99078.50;4398072;32;20126;-77
2021/05/24 05:36:33;;;;;;;9.07;3.03;;;;;;;10.86;73.54;99075.78;4398607;32;20382;-78
2021/05/24 05:39:00;;;;;;;9.68;3.12;;;;;;;10.88;72.34;99097.81;4398499;32;20086;-78
2021/05/24 05:41:25;;;;;;;11.57;3.10;;;;;;;10.71;71.86;99083.38;4398240;32;20022;-78
2021/05/24 05:43:51;;;;;;;8.32;3.00;;;;;;;10.82;71.92;99094.09;4384352;32;20161;-78
2021/05/24 05:46:17;;;;;;;8.93;3.00;;;;;;;11.11;70.93;99088.56;4398240;32;20102;-78
2021/05/24 05:48:43;;;;;;;6.78;3.22;;;;;;;11.20;70.12;99094.13;4396969;32;20085;-78
2021/05/24 05:51:09;;;;;;;8.82;3.78;;;;;;;11.42;69.79;99097.34;4397463;32;20148;-78
2021/05/24 05:53:36;;;;;;;13.10;3.40;;;;;;;11.73;69.22;99097.69;4400800;32;20078;-78
2021/05/24 05:56:02;;;;;;;9.90;2.80;;;;;;;12.02;67.90;99095.63;4399453;32;20311;-78
2021/05/24 05:58:30;;;;;;;8.10;2.70;;;;;;;12.14;68.26;99093.78;4388333;32;20099;-78
2021/05/24 06:00:57;;;;;;;12.80;2.70;;;;;;;12.43;66.66;99099.38;4399587;32;20069;-78
2021/05/24 06:03:22;;;;;;;7.30;2.85;;;;;;;12.74;65.42;99093.91;4384457;32;20144;-78
2021/05/24 06:05:48;;;;;;;9.68;3.10;;;;;;;12.82;64.17;99106.31;4402980;32;21054;-78
2021/05/24 06:08:14;;;;;;;10.77;3.00;;;;;;;12.93;63.57;99105.69;4386271;32;20037;-78
2021/05/24 06:10:40;;;;;;;10.85;2.53;;;;;;;13.03;63.29;99107.91;4399579;32;20485;-78
2021/05/24 06:13:06;;;;;;;8.98;3.40;;;;;;;13.10;63.07;99109.53;4398426;32;20072;-78
2021/05/24 06:15:32;;;;;;;9.50;2.65;;;;;;;13.20;63.37;99110.94;4402387;32;20068;-77
2021/05/24 06:17:57;;;;;;;11.07;2.85;;;;;;;13.33;61.73;99112.13;4400876;32;20097;-77
2021/05/24 06:20:23;;;;;;;13.52;3.17;;;;;;;13.19;62.76;99110.16;4398109;32;20085;-77
2021/05/24 06:22:49;;;;;;;11.80;3.12;;;;;;;13.33;61.60;99109.31;4400227;32;20425;-77
2021/05/24 06:25:15;;;;;;;10.57;3.03;;;;;;;13.50;62.65;99117.97;4400942;32;20081;-78
2021/05/24 06:27:42;;;;;;;11.05;2.83;;;;;;;13.44;61.79;99117.13;4397741;32;20046;-78
2021/05/24 06:30:10;;;;;;;14.05;3.03;;;;;;;13.58;61.36;99121.88;4397505;32;20058;-78
2021/05/24 06:32:37;;;;;;;14.80;2.90;;;;;;;13.77;60.85;99117.44;4394882;32;20458;-78
2021/05/24 06:35:04;;;;;;;12.23;3.10;;;;;;;13.50;61.36;99126.44;4397458;32;20101;-78
2021/05/24 06:37:29;;;;;;;11.48;3.17;;;;;;;13.74;61.07;99127.72;4397224;32;20510;-78
2021/05/24 06:39:55;;;;;;;11.18;3.00;;;;;;;13.71;59.97;99125.88;4392469;32;20077;-79
2021/05/24 06:42:21;;;;;;;9.80;3.55;;;;;;;13.53;60.16;99134.69;4399055;32;20050;-79
2021/05/24 06:44:47;;;;;;;8.27;2.87;;;;;;;13.19;60.55;99129.16;4392869;32;20061;-80
2021/05/24 06:47:12;;;;;;;7.00;2.75;;;;;;;13.20;61.24;99120.16;4393174;32;20536;-76
2021/05/24 06:49:38;;;;;;;10.35;3.17;;;;;;;13.30;62.01;99124.41;4393690;32;20466;-76
2021/05/24 06:52:04;;;;;;;11.18;3.42;;;;;;;13.07;61.53;99127.47;4385951;32;20098;-76
2021/05/24 06:54:30;;;;;;;21.15;3.72;;;;;;;13.28;61.49;99126.16;4386824;32;20101;-76
2021/05/24 06:56:56;;;;;;;12.30;3.00;;;;;;;13.40;60.83;99133.50;4382012;32;20073;-75
2021/05/24 06:59:22;;;;;;;13.95;3.75;;;;;;;13.48;59.62;99134.63;4384319;32;20050;-76
2021/05/24 07:01:50;;;;;;;11.65;2.80;;;;;;;13.49;60.52;99122.03;4390340;32;20094;-75
2021/05/24 07:04:16;;;;;;;13.00;2.75;;;;;;;13.64;60.12;99132.00;4392201;32;20137;-75
2021/05/24 07:06:42;;;;;;;16.62;3.40;;;;;;;13.65;60.94;99133.53;4396646;32;20080;-75
2021/05/24 07:09:08;;;;;;;12.20;3.00;;;;;;;13.76;60.32;99135.69;4393221;32;20552;-75
2021/05/24 07:11:34;;;;;;;18.35;2.83;;;;;;;13.79;59.79;99127.00;4389180;32;20058;-75
2021/05/24 07:14:00;;;;;;;12.02;2.50;;;;;;;13.98;59.83;99142.34;4371337;32;20110;-77
2021/05/24 07:16:25;;;;;;;11.68;2.70;;;;;;;13.93;58.82;99131.75;4388093;32;20138;-75
2021/05/24 07:18:51;;;;;;;11.85;2.55;;;;;;;14.07;58.21;99125.22;4387845;32;20075;-75
2021/05/24 07:21:17;;;;;;;9.98;2.40;;;;;;;14.06;58.15;99131.38;4387575;32;20054;-76
2021/05/24 07:23:42;;;;;;;12.75;2.75;;;;;;;13.96;57.96;99133.59;4389338;32;21125;-75
2021/05/24 07:26:08;;;;;;;9.77;2.67;;;;;;;14.08;57.49;99138.06;4386778;32;21043;-76
2021/05/24 07:28:33;;;;;;;9.23;2.33;;;;;;;13.99;57.27;99124.09;4388114;32;20451;-75
2021/05/24 07:30:59;;;;;;;10.25;2.62;;;;;;;14.26;57.85;99136.94;4390662;32;20635;-74
2021/05/24 07:33:25;;;;;;;15.48;2.45;;;;;;;14.15;57.60;99136.84;4389246;32;20093;-74
2021/05/24 07:35:52;;;;;;;13.07;2.15;;;;;;;14.34;57.00;99132.41;4391228;32;20085;-77
2021/05/24 07:38:18;;;;;;;10.32;2.58;;;;;;;14.50;56.53;99130.94;4375802;32;20176;-76
2021/05/24 07:40:44;;;;;;;8.25;2.30;;;;;;;14.57;56.00;99127.69;4388541;32;21184;-77
2021/05/24 07:43:09;;;;;;;12.13;3.17;;;;;;;14.79;55.32;99134.22;4390826;32;20086;-77
2021/05/24 07:45:35;;;;;;;12.52;2.70;;;;;;;14.95;55.20;99144.12;4389343;32;20049;-75
2021/05/24 07:48:01;;;;;;;8.75;2.20;;;;;;;15.14;55.00;99142.41;4389137;32;20598;-75
2021/05/24 07:50:26;;;;;;;15.18;2.45;;;;;;;15.43;53.76;99142.81;4386337;32;20417;-75
2021/05/24 07:52:52;;;;;;;11.55;2.67;;;;;;;15.68;53.00;99139.03;4388707;32;20148;-75
2021/05/24 07:55:18;;;;;;;12.50;2.30;;;;;;;15.83;52.89;99147.31;4377805;32;20080;-75
2021/05/24 07:57:44;;;;;;;18.55;2.70;;;;;;;15.99;52.12;99144.50;4390917;32;20050;-75
2021/05/24 08:00:11;;;;;;;11.85;1.98;;;;;;;16.03;52.43;99149.94;4387735;32;20089;-75
2021/05/24 08:02:41;;;;;;;8.57;2.35;;;;;;;16.48;50.22;99151.53;4386142;32;20070;-75
2021/05/24 08:05:08;;;;;;;12.57;2.28;;;;;;;16.70;50.37;99157.19;4388736;32;20041;-76
2021/05/24 08:07:35;;;;;;;13.25;2.30;;;;;;;16.93;48.73;99157.91;4389716;32;20127;-74
2021/05/24 08:10:02;;;;;;;9.90;2.08;;;;;;;17.08;48.42;99164.06;4389820;32;20108;-75
2021/05/24 08:12:28;;;;;;;8.88;2.00;;;;;;;16.84;47.26;99166.75;4390083;32;20089;-75
2021/05/24 08:14:53;;;;;;;12.63;2.20;;;;;;;16.49;48.66;99178.63;4388359;32;20119;-75
2021/05/24 08:17:20;;;;;;;9.88;2.28;;;;;;;16.51;48.15;99164.69;4391648;32;20140;-75
2021/05/24 08:19:45;;;;;;;13.23;2.80;;;;;;;16.79;49.28;99164.66;4391096;32;20050;-75
2021/05/24 08:22:11;;;;;;;14.68;2.22;;;;;;;16.71;48.95;99158.72;4392095;32;20093;-75
2021/05/24 08:24:37;;;;;;;16.20;2.55;;;;;;;16.27;49.38;99174.97;4393576;32;20054;-74
2021/05/24 08:27:03;;;;;;;13.88;2.45;;;;;;;15.98;49.41;99176.22;4388329;32;20086;-75
2021/05/24 08:29:29;;;;;;;13.02;3.45;;;;;;;16.12;49.83;99172.38;4389449;32;20061;-75
2021/05/24 08:31:55;;;;;;;18.17;3.00;;;;;;;16.23;50.02;99180.91;4389186;32;20176;-75
2021/05/24 08:34:20;;;;;;;15.95;2.95;;;;;;;16.12;50.19;99168.78;4376353;32;20476;-76
2021/05/24 08:36:46;;;;;;;13.00;2.87;;;;;;;16.35;49.94;99171.09;4389007;32;20511;-76
2021/05/24 08:39:12;;;;;;;13.23;2.40;;;;;;;16.58;48.63;99171.91;4390640;32;20062;-75
2021/05/24 08:41:39;;;;;;;10.07;1.80;;;;;;;16.59;48.49;99173.44;4387161;32;20105;-76
2021/05/24 08:44:05;;;;;;;9.40;2.10;;;;;;;16.51;48.50;99170.34;4388999;32;20093;-75
2021/05/24 08:46:31;;;;;;;15.20;2.70;;;;;;;16.95;47.81;99169.53;4392276;32;20568;-75
2021/05/24 08:48:57;;;;;;;10.05;2.45;;;;;;;17.31;47.39;99168.41;4386573;32;20066;-76
2021/05/24 08:51:23;;;;;;;11.90;2.20;;;;;;;17.32;46.39;99164.25;4388453;32;20135;-75
2021/05/24 08:53:49;;;;;;;10.18;1.70;;;;;;;17.41;46.30;99167.59;4391025;32;20486;-76
2021/05/24 08:56:15;;;;;;;9.35;1.73;;;;;;;17.36;44.42;99176.13;4388070;32;20073;-76
2021/05/24 08:58:41;;;;;;;10.13;1.85;;;;;;;17.12;44.77;99176.72;4388634;32;20192;-76
2021/05/24 09:01:07;;;;;;;8.35;1.80;;;;;;;17.43;44.75;99170.69;4387202;32;20058;-77
2021/05/24 09:03:36;;;;;;;9.60;1.58;;;;;;;17.68;43.56;99163.88;4389512;32;20046;-76
2021/05/24 09:06:10;;;;;;;9.35;2.15;;;;;;;17.82;42.56;99168.47;4390545;32;20101;-75
2021/05/24 09:08:38;;;;;;;9.18;2.28;;;;;;;18.18;42.81;99174.19;4392611;32;20042;-75
2021/05/24 09:11:05;;;;;;;7.78;1.52;;;;;;;18.38;40.84;99170.97;4389582;32;20149;-75
2021/05/24 09:13:33;;;;;;;13.20;1.83;;;;;;;18.65;39.84;99161.41;4389756;32;20093;-74
2021/05/24 09:16:00;;;;;;;13.65;2.03;;;;;;;18.85;39.64;99169.50;4391130;32;20313;-74
2021/05/24 09:18:26;;;;;;;7.37;1.67;;;;;;;19.01;40.99;99165.72;4388845;32;20411;-75
2021/05/24 09:20:52;;;;;;;8.20;1.35;;;;;;;19.74;40.54;99184.34;4389513;32;20074;-75
2021/05/24 09:26:16;;;;;;;11.50;1.80;;;;;;;20.22;38.37;99175.59;3992524;31;15070836;-75
2021/05/24 09:28:46;;;;;;;8.80;1.48;;;;;;;20.12;38.19;99176.53;4435724;32;20116;-74
2021/05/24 09:31:20;;;;;;;7.72;2.03;;;;;;;20.09;37.86;99178.37;4446673;32;20053;-76
2021/05/24 09:33:49;;;;;;;9.55;1.50;;;;;;;20.31;37.43;99175.22;4444824;32;20077;-75
2021/05/24 09:36:15;;;;;;;9.75;1.85;;;;;;;20.11;37.28;99184.34;4447537;32;20040;-74
2021/05/24 09:41:21;;;;;;;13.80;1.95;;;;;;;20.76;36.81;99178.91;3982025;32;15025812;-77
2021/05/24 09:43:50;;;;;;;12.45;1.80;;;;;;;20.76;36.81;99178.91;4446139;32;20191;-75
2021/05/24 09:48:55;;;;;;;4.18;1.62;;;;;;;21.25;34.73;99171.53;3949021;32;15729518;-74
2021/05/24 09:51:25;;;;;;;10.57;2.60;;;;;;;21.25;34.73;99171.53;4421974;32;20072;-76
2021/05/24 09:54:11;;;;;;;7.45;1.85;;;;;;;21.19;35.01;99161.50;4428479;32;20107;-75
2021/05/24 09:56:44;;;;;;;7.78;1.70;;;;;;;21.32;33.76;99168.00;4422871;32;20049;-75
2021/05/24 09:59:13;;;;;;;7.28;2.20;;;;;;;21.26;32.94;99175.16;4423996;32;20030;-75
2021/05/24 10:01:44;;;;;;;6.68;1.37;;;;;;;21.59;33.64;99180.19;4422674;32;20331;-75
2021/05/24 10:04:13;;;;;;;7.18;1.33;;;;;;;21.63;32.26;99169.94;4426130;32;21230;-75
2021/05/24 10:06:39;;;;;;;10.65;2.28;;;;;;;21.49;33.33;99168.44;4426151;32;20091;-75
2021/05/24 10:09:07;;;;;;;7.62;1.70;;;;;;;21.04;34.20;99173.47;4419233;32;20516;-75
2021/05/24 10:11:35;;;;;;;5.37;1.70;;;;;;;20.80;33.61;99173.62;4422892;32;20065;-75
2021/05/24 10:14:02;;;;;;;8.25;1.52;;;;;;;20.95;33.66;99176.75;4420946;32;20060;-75
2021/05/24 10:16:32;;;;;;;8.70;1.70;;;;;;;20.87;31.60;99178.72;4426235;32;20069;-75
2021/05/24 10:18:58;;;;;;;6.45;1.92;;;;;;;20.86;32.26;99177.16;4419203;32;20384;-75
2021/05/24 10:21:25;;;;;;;5.57;1.83;;;;;;;21.41;33.20;99173.28;4418608;32;20148;-75
2021/05/24 10:23:52;;;;;;;8.10;2.80;;;;;;;22.22;32.12;99165.56;4425991;32;20044;-75
2021/05/24 10:26:19;;;;;;;7.07;1.60;;;;;;;22.77;30.10;99166.31;4413160;32;20463;-76
2021/05/24 10:28:47;;;;;;;4.12;1.33;;;;;;;23.11;29.73;99167.72;4424641;32;20092;-76
2021/05/24 10:31:20;;;;;;;11.48;1.92;;;;;;;23.86;29.07;99173.19;4424907;32;20095;-76
2021/05/24 10:33:47;;;;;;;6.00;1.42;;;;;;;23.91;28.61;99180.09;4426287;32;20108;-75
2021/05/24 10:39:15;;;;;;;10.00;1.83;;;;;;;23.86;27.85;99184.69;3984066;31;15017706;-75
2021/05/24 10:41:58;;;;;;;13.85;2.37;;;;;;;24.29;27.47;99172.41;4427452;32;20199;-75
2021/05/24 10:44:43;;;;;;;7.03;1.95;;;;;;;24.29;27.36;99178.16;4427131;32;20453;-74
2021/05/24 10:47:25;;;;;;;8.68;1.60;;;;;;;23.63;28.40;99171.53;4425918;32;20148;-75
2021/05/24 10:58:14;;;;;;;9.27;2.20;;;;;;;23.34;29.24;99180.19;3978604;32;15023917;-75
2021/05/24 11:00:59;;;;;;;8.32;1.95;;;;;;;23.34;29.24;99180.19;4427800;32;20073;-73
2021/05/24 11:03:25;;;;;;;6.97;2.47;;;;;;;22.62;29.12;99177.66;4413054;32;20096;-75
2021/05/24 11:08:50;;;;;;;10.68;1.73;;;;;;;22.07;31.23;99184.66;3980706;32;15022372;-75
2021/05/24 11:11:19;;;;;;;12.15;3.20;;;;;;;22.07;31.23;99184.66;4426201;32;20104;-75
2021/05/24 11:16:36;;;;;;;8.20;1.73;;;;;;;23.24;29.22;99193.50;3968098;32;15024387;-77
2021/05/24 11:19:18;;;;;;;5.00;1.35;;;;;;;23.24;29.22;99193.50;4430927;32;20099;-75
2021/05/24 11:21:53;;;;;;;9.60;2.00;;;;;;;23.79;28.08;99182.53;4428320;32;20321;-76
2021/05/24 11:24:38;;;;;;;;;;;;;;;24.39;27.67;99188.53;4432533;32;20057;-78
2021/05/24 11:27:16;;;;;;;4.70;1.42;;;;;;;24.86;25.99;99203.25;4431989;32;20040;-79
2021/05/24 11:29:47;;;;;;;4.22;1.12;;;;;;;25.08;24.80;99204.56;4428650;32;20103;-77
2021/05/24 11:32:20;;;;;;;6.72;1.80;;;;;;;24.20;25.67;99190.97;4431126;32;20076;-75
2021/05/24 11:34:46;;;;;;;9.85;1.80;;;;;;;23.84;26.27;99195.97;4432175;32;20205;-75
2021/05/24 11:37:13;;;;;;;11.32;2.00;;;;;;;23.40;27.32;99198.03;4425820;32;20120;-74
2021/05/24 11:39:54;;;;;;;11.12;1.62;;;;;;;22.91;28.22;99199.31;4429597;32;20064;-75
2021/05/24 11:45:01;;;;;;;8.32;1.50;;;;;;;22.33;28.11;99201.78;3970286;32;15021248;-78
2021/05/24 11:47:28;;;;;;;7.28;2.12;;;;;;;22.33;28.11;99201.78;4424248;32;20080;-78
2021/05/24 11:52:35;;;;;;;7.20;1.50;;;;;;;21.14;29.89;99203.19;3974363;32;15025642;-78
2021/05/24 11:55:01;;;;;;;6.40;1.42;;;;;;;21.14;29.89;99203.19;4424508;32;20073;-80
2021/05/24 11:57:31;;;;;;;6.65;1.62;;;;;;;21.02;30.21;99201.09;4422727;32;20042;-79
2021/05/24 11:59:57;;;;;;;9.38;1.80;;;;;;;21.05;30.46;99206.47;4423079;32;20114;-78
2021/05/24 12:02:23;;;;;;;8.20;1.77;;;;;;;21.28;30.64;99193.31;4408249;32;20347;-76
2021/05/24 12:04:51;;;;;;;7.00;2.45;;;;;;;21.48;30.34;99211.91;4405494;32;20450;-78
2021/05/24 12:07:20;;;;;;;7.37;2.10;;;;;;;20.70;36.28;99214.59;4406642;32;20442;-77